createdAt,value
2022-10-04T00:00:26.283Z,2.80
2022-10-04T00:03:03.572Z,2.53
2022-10-04T00:05:44.008Z,3.05
2022-10-04T00:08:25.961Z,2.83
2022-10-04T00:11:05.045Z,2.95
2022-10-04T00:13:36.324Z,3.00
2022-10-04T00:16:09.722Z,2.95
2022-10-04T00:18:44.783Z,3.13
2022-10-04T00:21:13.532Z,3.28
2022-10-04T00:23:46.166Z,3.53
2022-10-04T00:26:47.950Z,3.92
2022-10-04T00:29:32.459Z,3.70
2022-10-04T00:32:29.334Z,3.20
2022-10-04T00:34:58.457Z,2.78
2022-10-04T00:37:29.207Z,3.30
2022-10-04T00:40:12.226Z,2.83
2022-10-04T00:42:51.071Z,3.20
2022-10-04T00:45:28.659Z,3.60
2022-10-04T00:48:34.590Z,3.50
2022-10-04T00:51:12.229Z,3.42
2022-10-04T00:54:05.438Z,3.63
2022-10-04T00:56:39.721Z,3.30
2022-10-04T00:59:19.443Z,3.40
2022-10-04T01:01:52.468Z,2.85
2022-10-04T01:04:36.860Z,2.83
2022-10-04T01:07:07.281Z,3.15
2022-10-04T01:09:41.643Z,3.13
2022-10-04T01:12:23.932Z,2.70
2022-10-04T01:15:00.987Z,2.85
2022-10-04T01:17:29.726Z,3.13
2022-10-04T01:20:00.849Z,2.58
2022-10-04T01:22:41.340Z,3.38
2022-10-04T01:25:33.848Z,3.78
2022-10-04T01:28:04.012Z,3.33
2022-10-04T01:30:34.388Z,3.53
2022-10-04T01:33:03.547Z,3.78
2022-10-04T01:35:32.174Z,3.67
2022-10-04T01:38:00.896Z,3.63
2022-10-04T01:40:31.869Z,4.30
2022-10-04T01:43:06.811Z,3.50
2022-10-04T01:45:41.692Z,3.40
2022-10-04T01:48:14.239Z,3.17
2022-10-04T01:50:47.679Z,3.47
2022-10-04T01:53:28.555Z,3.58
2022-10-04T01:56:06.522Z,3.63
2022-10-04T01:58:43.813Z,4.05
2022-10-04T02:01:16.262Z,4.20
2022-10-04T02:03:52.567Z,4.60
2022-10-04T02:06:22.710Z,3.60
2022-10-04T02:08:57.731Z,4.47
2022-10-04T02:11:31.394Z,4.18
2022-10-04T02:14:03.585Z,4.53
2022-10-04T02:16:33.414Z,4.70
2022-10-04T02:19:03.634Z,3.83
2022-10-04T02:21:33.957Z,4.47
2022-10-04T02:24:08.649Z,4.00
2022-10-04T02:26:37.251Z,4.55
2022-10-04T02:29:07.536Z,5.50
2022-10-04T02:31:56.323Z,5.40
2022-10-04T02:34:25.201Z,4.53
2022-10-04T02:36:55.972Z,4.63
2022-10-04T02:39:30.078Z,4.25
2022-10-04T02:42:03.910Z,6.03
2022-10-04T02:44:45.699Z,5.05
2022-10-04T02:47:18.479Z,4.55
2022-10-04T02:49:49.457Z,5.43
2022-10-04T02:52:23.795Z,5.20
2022-10-04T02:55:01.070Z,4.80
2022-10-04T02:57:30.775Z,5.18
2022-10-04T03:00:18.565Z,4.90
2022-10-04T03:03:11.880Z,5.65
2022-10-04T03:05:41.944Z,5.13
2022-10-04T03:08:12.001Z,4.80
2022-10-04T03:10:43.054Z,4.07
2022-10-04T03:13:15.412Z,4.53
2022-10-04T03:15:47.050Z,4.57
2022-10-04T03:18:17.164Z,4.20
2022-10-04T03:20:47.258Z,4.50
2022-10-04T03:23:23.007Z,4.70
2022-10-04T03:25:57.169Z,4.47
2022-10-04T03:28:28.334Z,4.63
2022-10-04T03:31:02.348Z,4.60
2022-10-04T03:33:48.160Z,5.53
2022-10-04T03:36:19.669Z,4.82
2022-10-04T03:38:49.968Z,5.03
2022-10-04T03:41:18.660Z,4.88
2022-10-04T03:43:50.513Z,4.72
2022-10-04T03:46:24.887Z,4.97
2022-10-04T03:48:55.582Z,4.55
2022-10-04T03:51:28.460Z,4.78
2022-10-04T03:54:00.306Z,4.72
2022-10-04T03:56:31.884Z,5.93
2022-10-04T03:59:03.073Z,4.70
2022-10-04T04:01:46.727Z,4.88
2022-10-04T04:04:23.425Z,4.72
2022-10-04T04:07:03.300Z,5.90
2022-10-04T04:09:44.208Z,4.88
2022-10-04T04:12:19.162Z,6.50
2022-10-04T04:14:52.246Z,5.55
2022-10-04T04:17:42.379Z,6.00
2022-10-04T04:20:24.395Z,6.72
2022-10-04T04:23:02.957Z,6.32
2022-10-04T04:25:36.160Z,5.63
2022-10-04T04:28:14.992Z,5.85
2022-10-04T04:30:48.908Z,5.00
2022-10-04T04:33:27.066Z,5.18
2022-10-04T04:35:57.626Z,5.22
2022-10-04T04:38:27.231Z,4.88
2022-10-04T04:40:57.366Z,5.43
2022-10-04T04:43:28.995Z,6.15
2022-10-04T04:46:25.551Z,5.97
2022-10-04T04:48:51.935Z,5.72
2022-10-04T04:51:23.162Z,5.82
2022-10-04T04:53:53.455Z,5.80
2022-10-04T04:56:24.973Z,5.13
2022-10-04T04:58:56.155Z,4.15
2022-10-04T05:01:28.589Z,4.82
2022-10-04T05:04:06.738Z,5.53
2022-10-04T05:06:37.487Z,5.13
2022-10-04T05:09:06.876Z,5.32
2022-10-04T05:11:39.795Z,5.07
2022-10-04T05:14:12.449Z,5.05
2022-10-04T05:16:44.487Z,4.90
2022-10-04T05:19:21.776Z,4.28
2022-10-04T05:21:54.372Z,3.60
2022-10-04T05:24:27.380Z,4.90
2022-10-04T05:26:58.987Z,3.60
2022-10-04T05:29:30.520Z,4.72
2022-10-04T05:32:14.347Z,3.60
2022-10-04T05:34:46.929Z,4.10
2022-10-04T05:37:46.591Z,3.70
2022-10-04T05:40:37.183Z,3.33
2022-10-04T05:43:23.289Z,3.50
2022-10-04T05:46:14.428Z,4.60
2022-10-04T05:48:44.487Z,3.67
2022-10-04T05:51:21.275Z,4.07
2022-10-04T05:53:52.312Z,3.90
2022-10-04T05:56:52.067Z,4.47
2022-10-04T05:59:41.942Z,4.43
2022-10-04T06:02:25.252Z,5.07
2022-10-04T06:05:07.464Z,4.43
2022-10-04T06:07:42.722Z,4.30
2022-10-04T06:10:30.700Z,4.20
2022-10-04T06:13:04.170Z,3.95
2022-10-04T06:15:57.545Z,4.07
2022-10-04T06:19:00.529Z,4.57
2022-10-04T06:21:30.360Z,4.50
2022-10-04T06:24:07.731Z,4.00
2022-10-04T06:26:43.670Z,3.90
2022-10-04T06:29:15.994Z,3.75
2022-10-04T06:32:14.028Z,3.80
2022-10-04T06:35:26.329Z,3.60
2022-10-04T06:38:23.597Z,3.60
2022-10-04T06:41:26.467Z,3.22
2022-10-04T06:44:12.607Z,3.38
2022-10-04T06:46:49.171Z,3.15
2022-10-04T06:49:44.031Z,3.20
2022-10-04T06:52:31.039Z,3.08
2022-10-04T06:55:33.188Z,3.38
2022-10-04T06:58:30.700Z,4.20
2022-10-04T07:01:07.358Z,4.75
2022-10-04T07:03:49.185Z,4.50
2022-10-04T07:06:28.879Z,4.97
2022-10-04T07:09:03.786Z,4.93
2022-10-04T07:11:42.958Z,5.25
2022-10-04T07:14:21.616Z,5.07
2022-10-04T07:16:54.931Z,4.70
2022-10-04T07:19:43.374Z,4.70
2022-10-04T07:22:18.723Z,5.00
2022-10-04T07:25:08.144Z,4.68
2022-10-04T07:27:45.951Z,4.78
2022-10-04T07:30:17.399Z,5.50
2022-10-04T07:32:47.858Z,4.53
2022-10-04T07:35:33.834Z,4.10
2022-10-04T07:38:18.185Z,4.93
2022-10-04T07:41:03.515Z,4.80
2022-10-04T07:43:37.757Z,4.15
2022-10-04T07:46:14.954Z,4.15
2022-10-04T07:48:49.298Z,4.20
2022-10-04T07:51:31.496Z,5.05
2022-10-04T07:54:03.580Z,5.38
2022-10-04T07:56:40.309Z,4.88
2022-10-04T07:59:35.309Z,4.22
2022-10-04T08:02:27.709Z,4.72
2022-10-04T08:05:09.228Z,4.35
2022-10-04T08:07:51.378Z,4.75
2022-10-04T08:10:29.490Z,3.95
2022-10-04T08:13:08.121Z,4.30
2022-10-04T08:15:39.269Z,4.13
2022-10-04T08:18:30.472Z,4.20
2022-10-04T08:21:00.927Z,4.35
2022-10-04T08:23:46.706Z,4.10
2022-10-04T08:26:35.154Z,4.57
2022-10-04T08:29:38.643Z,4.05
2022-10-04T08:32:23.238Z,3.92
2022-10-04T08:35:27.961Z,4.28
2022-10-04T08:38:18.057Z,3.83
2022-10-04T08:41:18.433Z,4.07
2022-10-04T08:44:20.248Z,4.45
2022-10-04T08:47:21.766Z,4.47
2022-10-04T08:50:34.623Z,4.15
2022-10-04T08:53:40.032Z,4.00
2022-10-04T08:56:15.081Z,3.58
2022-10-04T08:59:10.087Z,3.92
2022-10-04T09:02:12.223Z,3.30
2022-10-04T09:05:10.530Z,3.22
2022-10-04T09:08:04.802Z,3.60
2022-10-04T09:10:48.254Z,3.38
2022-10-04T09:13:37.643Z,3.42
2022-10-04T09:16:20.315Z,3.00
2022-10-04T09:19:00.397Z,2.83
2022-10-04T09:21:51.330Z,2.88
2022-10-04T09:24:56.209Z,3.05
2022-10-04T09:27:54.708Z,3.20
2022-10-04T09:30:33.136Z,2.92
2022-10-04T09:33:25.890Z,3.78
2022-10-04T09:36:17.156Z,2.80
2022-10-04T09:39:30.079Z,2.97
2022-10-04T09:42:33.678Z,3.13
2022-10-04T09:45:28.840Z,3.55
2022-10-04T09:48:10.476Z,3.20
2022-10-04T09:51:20.443Z,3.03
2022-10-04T09:54:04.776Z,3.00
2022-10-04T09:57:03.164Z,3.72
2022-10-04T10:00:01.915Z,3.15
2022-10-04T10:03:01.765Z,2.95
2022-10-04T10:05:48.450Z,3.03
2022-10-04T10:08:28.174Z,2.83
2022-10-04T10:11:22.416Z,2.83
2022-10-04T10:14:18.417Z,3.50
2022-10-04T10:17:05.098Z,3.25
2022-10-04T10:20:17.403Z,2.70
2022-10-04T10:23:21.189Z,3.03
2022-10-04T10:26:05.882Z,3.30
2022-10-04T10:29:20.342Z,2.97
2022-10-04T10:32:01.248Z,3.20
2022-10-04T10:35:15.664Z,2.90
2022-10-04T10:38:04.836Z,3.13
2022-10-04T10:40:59.919Z,3.00
2022-10-04T10:43:53.533Z,2.90
2022-10-04T10:46:47.600Z,2.80
2022-10-04T10:49:37.688Z,3.30
2022-10-04T10:52:44.701Z,2.85
2022-10-04T10:55:43.852Z,3.20
2022-10-04T10:59:05.461Z,3.08
2022-10-04T11:02:04.950Z,2.60
2022-10-04T11:04:49.696Z,2.90
2022-10-04T11:07:47.940Z,2.90
2022-10-04T11:10:50.038Z,2.88
2022-10-04T11:13:54.290Z,2.70
2022-10-04T11:17:07.826Z,3.03
2022-10-04T11:20:13.350Z,2.83
2022-10-04T11:23:18.993Z,2.92
2022-10-04T11:26:40.720Z,3.10
2022-10-04T11:29:21.392Z,2.45
2022-10-04T11:32:30.720Z,2.78
2022-10-04T11:35:36.912Z,2.70
2022-10-04T11:38:14.004Z,2.13
2022-10-04T11:41:03.861Z,2.53
2022-10-04T11:44:24.519Z,2.30
2022-10-04T11:46:58.009Z,2.30
2022-10-04T11:49:57.094Z,2.22
2022-10-04T11:53:04.306Z,2.15
2022-10-04T11:56:04.201Z,2.33
2022-10-04T11:58:45.471Z,2.28
2022-10-04T12:01:46.915Z,2.92
2022-10-04T12:04:32.829Z,2.10
2022-10-04T12:07:25.655Z,2.78
2022-10-04T12:10:04.077Z,2.17
2022-10-04T12:12:52.519Z,2.28
2022-10-04T12:15:45.529Z,2.10
2022-10-04T12:18:47.948Z,1.95
2022-10-04T12:21:40.167Z,2.55
2022-10-04T12:24:23.174Z,2.55
2022-10-04T12:27:05.312Z,2.38
2022-10-04T12:30:12.660Z,2.35
2022-10-04T12:32:57.541Z,2.15
2022-10-04T12:35:34.012Z,2.35
2022-10-04T12:38:24.621Z,2.08
2022-10-04T12:40:58.083Z,2.40
2022-10-04T12:43:38.346Z,2.08
2022-10-04T12:46:20.350Z,2.30
2022-10-04T12:48:57.506Z,2.40
2022-10-04T12:51:39.505Z,2.30
2022-10-04T12:54:25.470Z,2.72
2022-10-04T12:57:05.297Z,2.22
2022-10-04T12:59:48.728Z,2.25
2022-10-04T13:02:37.256Z,2.40
2022-10-04T13:05:15.749Z,2.67
2022-10-04T13:08:06.135Z,2.47
2022-10-04T13:10:47.897Z,2.10
2022-10-04T13:13:41.260Z,2.72
2022-10-04T13:19:20.397Z,2.33
2022-10-04T13:22:54.971Z,2.00
2022-10-04T13:25:27.042Z,2.30
2022-10-04T13:28:01.381Z,2.30
2022-10-04T13:30:38.752Z,1.95
2022-10-04T13:33:18.885Z,2.20
2022-10-04T13:35:58.818Z,1.98
2022-10-04T13:38:54.862Z,1.90
2022-10-04T13:41:34.074Z,1.90
2022-10-04T13:44:22.300Z,2.47
2022-10-04T13:47:07.452Z,2.08
2022-10-04T13:49:48.527Z,1.88
2022-10-04T13:52:47.195Z,2.10
2022-10-04T13:55:44.807Z,2.00
2022-10-04T13:58:27.034Z,2.45
2022-10-04T14:01:27.194Z,2.17
2022-10-04T14:04:10.456Z,2.25
2022-10-04T14:07:15.319Z,1.88
2022-10-04T14:10:02.192Z,2.03
2022-10-04T14:13:19.687Z,2.20
2022-10-04T14:16:15.558Z,2.55
2022-10-04T14:19:23.049Z,1.80
2022-10-04T14:22:25.187Z,2.08
2022-10-04T14:25:21.759Z,1.92
2022-10-04T14:28:16.964Z,2.10
2022-10-04T14:31:02.150Z,2.40
2022-10-04T14:33:56.017Z,2.08
2022-10-04T14:36:44.914Z,2.20
2022-10-04T14:39:41.604Z,2.30
2022-10-04T14:42:47.666Z,2.10
2022-10-04T14:45:32.861Z,1.75
2022-10-04T14:48:29.939Z,1.98
2022-10-04T14:51:27.787Z,1.73
2022-10-04T14:54:04.396Z,1.67
2022-10-04T14:57:02.557Z,1.60
2022-10-04T14:59:50.398Z,1.70
2022-10-04T15:02:52.690Z,1.45
2022-10-04T15:05:33.167Z,1.52
2022-10-04T15:08:30.989Z,1.40
2022-10-04T15:11:03.184Z,2.03
2022-10-04T15:13:39.436Z,1.50
2022-10-04T15:16:17.908Z,1.45
2022-10-04T15:18:53.425Z,1.40
2022-10-04T15:21:45.440Z,1.20
2022-10-04T15:24:29.071Z,1.48
2022-10-04T15:27:35.630Z,1.40
2022-10-04T15:30:14.358Z,1.30
2022-10-04T15:32:51.359Z,1.30
2022-10-04T15:35:30.265Z,1.58
2022-10-04T15:38:05.519Z,1.23
2022-10-04T15:40:43.158Z,1.30
2022-10-04T15:43:24.141Z,1.30
2022-10-04T15:46:40.147Z,1.30
2022-10-04T15:49:31.126Z,1.30
2022-10-04T15:52:15.359Z,1.52
2022-10-04T15:55:12.640Z,1.58
2022-10-04T15:58:09.736Z,1.10
2022-10-04T16:00:49.540Z,1.42
2022-10-04T16:03:31.951Z,1.35
2022-10-04T16:06:06.228Z,1.50
2022-10-04T16:09:03.685Z,1.50
2022-10-04T16:11:46.070Z,1.30
2022-10-04T16:14:56.990Z,1.60
2022-10-04T16:17:57.209Z,1.42
2022-10-04T16:20:57.063Z,1.40
2022-10-04T16:23:32.726Z,1.23
2022-10-04T16:26:04.970Z,1.10
2022-10-04T16:29:08.140Z,1.63
2022-10-04T16:31:46.783Z,1.50
2022-10-04T16:34:50.409Z,1.13
2022-10-04T16:37:31.607Z,1.58
2022-10-04T16:40:17.321Z,1.20
2022-10-04T16:42:56.321Z,1.40
2022-10-04T16:45:45.676Z,1.20
2022-10-04T16:48:27.492Z,1.20
2022-10-04T16:51:33.210Z,1.50
2022-10-04T16:54:14.490Z,1.13
2022-10-04T16:57:15.208Z,1.30
2022-10-04T16:59:50.213Z,1.42
2022-10-04T17:02:49.266Z,1.55
2022-10-04T17:05:54.764Z,1.63
2022-10-04T17:08:56.851Z,1.40
2022-10-04T17:11:43.317Z,1.75
2022-10-04T17:14:48.264Z,1.67
2022-10-04T17:17:24.797Z,1.42
2022-10-04T17:20:00.617Z,1.60
2022-10-04T17:22:44.937Z,1.30
2022-10-04T17:25:29.915Z,1.75
2022-10-04T17:28:03.042Z,1.60
2022-10-04T17:30:48.155Z,1.60
2022-10-04T17:33:26.558Z,1.35
2022-10-04T17:36:19.361Z,1.50
2022-10-04T17:38:59.777Z,2.47
2022-10-04T17:41:43.401Z,1.80
2022-10-04T17:44:30.357Z,1.30
2022-10-04T17:47:11.901Z,2.05
2022-10-04T17:50:12.937Z,1.73
2022-10-04T17:53:06.140Z,2.00
2022-10-04T17:55:47.661Z,1.50
2022-10-04T17:58:20.587Z,1.63
2022-10-04T18:00:59.447Z,1.77
2022-10-04T18:03:38.536Z,1.67
2022-10-04T18:06:27.304Z,1.80
2022-10-04T18:09:05.787Z,1.70
2022-10-04T18:11:43.739Z,1.40
2022-10-04T18:14:25.498Z,2.00
2022-10-04T18:16:58.448Z,1.52
2022-10-04T18:19:42.839Z,1.58
2022-10-04T18:22:16.026Z,2.10
2022-10-04T18:24:45.644Z,1.85
2022-10-04T18:27:22.379Z,1.58
2022-10-04T18:30:14.443Z,2.10
2022-10-04T18:32:48.676Z,1.73
2022-10-04T18:35:27.890Z,1.63
2022-10-04T18:38:15.953Z,1.80
2022-10-04T18:40:56.405Z,1.70
2022-10-04T18:43:32.387Z,1.55
2022-10-04T18:46:17.754Z,1.50
2022-10-04T18:48:55.934Z,2.08
2022-10-04T18:51:37.656Z,1.85
2022-10-04T18:54:21.566Z,1.88
2022-10-04T18:56:59.702Z,1.63
2022-10-04T18:59:58.248Z,1.95
2022-10-04T19:02:35.140Z,2.20
2022-10-04T19:05:14.887Z,1.98
2022-10-04T19:07:51.450Z,2.30
2022-10-04T19:10:31.257Z,2.28
2022-10-04T19:13:12.528Z,2.67
2022-10-04T19:16:02.136Z,2.03
2022-10-04T19:18:48.640Z,1.40
2022-10-04T19:21:26.719Z,2.08
2022-10-04T19:24:20.457Z,1.83
2022-10-04T19:26:57.033Z,1.83
2022-10-04T19:29:38.283Z,1.90
2022-10-04T19:32:13.595Z,1.80
2022-10-04T19:34:53.722Z,1.95
2022-10-04T19:37:26.969Z,1.90
2022-10-04T19:40:05.092Z,1.73
2022-10-04T19:42:43.844Z,1.75
2022-10-04T19:45:26.929Z,2.22
2022-10-04T19:47:59.405Z,1.70
2022-10-04T19:50:31.482Z,1.85
2022-10-04T19:53:03.895Z,2.03
2022-10-04T19:55:43.777Z,2.10
2022-10-04T19:58:27.245Z,2.00
2022-10-04T20:00:55.801Z,2.72
2022-10-04T20:03:24.251Z,2.22
2022-10-04T20:05:54.414Z,2.30
2022-10-04T20:08:50.412Z,2.05
2022-10-04T20:11:22.949Z,1.70
2022-10-04T20:14:28.109Z,2.00
2022-10-04T20:17:05.187Z,2.00
2022-10-04T20:19:40.950Z,2.08
2022-10-04T20:22:30.453Z,2.03
2022-10-04T20:24:59.566Z,1.92
2022-10-04T20:28:03.644Z,1.92
2022-10-04T20:30:52.236Z,2.05
2022-10-04T20:33:51.258Z,2.10
2022-10-04T20:36:54.689Z,2.17
2022-10-04T20:39:59.752Z,2.42
2022-10-04T20:42:33.828Z,2.20
2022-10-04T20:45:20.732Z,1.85
2022-10-04T20:47:51.008Z,2.72
2022-10-04T20:50:31.273Z,3.38
2022-10-04T20:53:04.073Z,1.70
2022-10-04T20:55:34.047Z,2.05
2022-10-04T20:58:04.081Z,2.40
2022-10-04T21:00:37.161Z,2.33
2022-10-04T21:03:18.877Z,2.17
2022-10-04T21:06:01.716Z,2.17
2022-10-04T21:08:30.859Z,2.58
2022-10-04T21:11:19.380Z,2.03
2022-10-04T21:13:54.271Z,2.20
2022-10-04T21:16:42.387Z,1.98
2022-10-04T21:19:32.373Z,2.88
2022-10-04T21:22:02.079Z,2.10
2022-10-04T21:24:38.737Z,2.42
2022-10-04T21:27:10.894Z,2.22
2022-10-04T21:29:41.333Z,2.20
2022-10-04T21:32:11.447Z,2.10
2022-10-04T21:34:53.001Z,2.67
2022-10-04T21:37:25.941Z,2.08
2022-10-04T21:39:56.536Z,2.13
2022-10-04T21:42:25.601Z,2.20
2022-10-04T21:44:53.999Z,2.30
2022-10-04T21:47:23.950Z,1.85
2022-10-04T21:49:53.913Z,2.08
2022-10-04T21:52:23.849Z,2.25
2022-10-04T21:54:52.515Z,2.20
2022-10-04T21:57:25.311Z,2.28
2022-10-04T21:59:53.751Z,2.08
2022-10-04T22:02:23.558Z,2.40
2022-10-04T22:04:53.825Z,2.50
2022-10-04T22:07:22.124Z,2.42
2022-10-04T22:09:50.510Z,2.40
2022-10-04T22:12:18.775Z,2.35
2022-10-04T22:14:47.490Z,2.20
2022-10-04T22:17:15.722Z,2.33
2022-10-04T22:19:45.532Z,2.10
2022-10-04T22:22:18.353Z,2.33
2022-10-04T22:24:46.806Z,2.55
2022-10-04T22:27:19.379Z,2.60
2022-10-04T22:29:50.098Z,2.55
2022-10-04T22:32:27.919Z,2.20
2022-10-04T22:35:07.305Z,2.45
2022-10-04T22:37:39.587Z,2.20
2022-10-04T22:40:12.418Z,2.05
2022-10-04T22:42:40.957Z,2.25
2022-10-04T22:45:16.976Z,2.00
2022-10-04T22:47:48.847Z,1.95
2022-10-04T22:50:36.991Z,1.80
2022-10-04T22:53:12.719Z,2.42
2022-10-04T22:55:42.482Z,2.55
2022-10-04T22:58:14.249Z,2.10
2022-10-04T23:00:43.149Z,2.05
2022-10-04T23:03:25.363Z,2.53
2022-10-04T23:06:05.994Z,2.50
2022-10-04T23:08:34.296Z,1.95
2022-10-04T23:11:04.787Z,2.30
2022-10-04T23:13:35.252Z,2.22
2022-10-04T23:16:12.166Z,2.42
2022-10-04T23:18:42.624Z,2.30
2022-10-04T23:21:22.090Z,2.20
2022-10-04T23:23:53.105Z,2.28
2022-10-04T23:26:24.874Z,2.10
2022-10-04T23:28:53.527Z,2.17
2022-10-04T23:31:25.171Z,2.17
2022-10-04T23:33:57.758Z,2.20
2022-10-04T23:36:28.777Z,2.40
2022-10-04T23:39:01.616Z,2.10
2022-10-04T23:41:33.901Z,2.10
2022-10-04T23:44:02.338Z,2.20
2022-10-04T23:46:33.473Z,2.20
2022-10-04T23:49:01.999Z,2.47
2022-10-04T23:51:33.806Z,2.45
2022-10-04T23:54:02.068Z,2.35
2022-10-04T23:56:30.994Z,2.53
2022-10-04T23:59:02.708Z,2.67
